Little Sioux, Iowa
Current Conditions -  °F | °C
As of 8:54 AM on Thursday 30 Oct 2014 (Local Time) from KTQE Reporting Station
Clear Clear  
Wind Chill: 42°   Ceiling: Unl
Heat Index: 42°   Visibility: 10mi
Dew Point: 34°   Wind: 3mph
Humidity: 73%   Direction: 300°WNW
Pressure: 30.04"   Gusts: NA
Location:  41.81°N, 96.02°W
Report Text: KTQE 301354Z AUTO 30003KT 10SM CLR 06/01 A3004 RMK AO2 SLP175 T00560011
Loading
Personal Weather Stations






























Interactive Weather Map
Tropical Storm Tracking
New forecast layout! Learn more

10-Day Weather Forecast

Advertisements
Track Severe Weather on mobile